createdAt,value
2023-03-20T00:01:24.199Z,4.46
2023-03-20T00:03:51.686Z,4.42
2023-03-20T00:06:21.406Z,4.35
2023-03-20T00:08:50.729Z,4.31
2023-03-20T00:11:31.530Z,4.25
2023-03-20T00:14:03.146Z,4.19
2023-03-20T00:16:36.258Z,4.14
2023-03-20T00:19:04.203Z,4.09
2023-03-20T00:21:31.696Z,4.05
2023-03-20T00:23:59.092Z,4.01
2023-03-20T00:26:31.586Z,3.98
2023-03-20T00:28:58.660Z,3.94
2023-03-20T00:31:29.363Z,3.89
2023-03-20T00:34:01.728Z,3.85
2023-03-20T00:36:28.960Z,3.82
2023-03-20T00:38:59.624Z,3.75
2023-03-20T00:41:46.627Z,3.70
2023-03-20T00:44:37.206Z,3.73
2023-03-20T00:47:12.646Z,3.74
2023-03-20T00:49:39.487Z,3.76
2023-03-20T00:52:09.211Z,3.75
2023-03-20T00:54:36.433Z,3.71
2023-03-20T00:57:18.722Z,3.69
2023-03-20T01:00:02.461Z,3.66
2023-03-20T01:02:31.527Z,3.63
2023-03-20T01:05:00.025Z,3.58
2023-03-20T01:07:28.050Z,3.56
2023-03-20T01:09:58.746Z,3.57
2023-03-20T01:12:25.839Z,3.56
2023-03-20T01:14:57.227Z,3.56
2023-03-20T01:17:26.323Z,3.51
2023-03-20T01:19:53.414Z,3.48
2023-03-20T01:22:20.750Z,3.46
2023-03-20T01:24:48.168Z,3.45
2023-03-20T01:27:17.811Z,3.46
2023-03-20T01:29:44.819Z,3.48
2023-03-20T01:32:14.883Z,3.48
2023-03-20T01:34:42.585Z,3.49
2023-03-20T01:37:13.887Z,3.48
2023-03-20T01:39:41.286Z,3.44
2023-03-20T01:42:08.412Z,3.41
2023-03-20T01:44:36.533Z,3.37
2023-03-20T01:47:16.063Z,3.32
2023-03-20T01:50:22.514Z,3.27
2023-03-20T01:52:57.474Z,3.22
2023-03-20T01:55:25.558Z,3.20
2023-03-20T01:58:00.045Z,3.19
2023-03-20T02:00:27.363Z,3.17
2023-03-20T02:02:55.666Z,3.15
2023-03-20T02:05:48.910Z,3.11
2023-03-20T02:08:37.692Z,3.08
2023-03-20T02:11:05.540Z,3.07
2023-03-20T02:13:33.260Z,3.09
2023-03-20T02:17:05.658Z,3.13
2023-03-20T02:20:04.419Z,3.15
2023-03-20T02:22:53.072Z,3.14
2023-03-20T02:25:44.425Z,3.13
2023-03-20T02:28:39.822Z,3.11
2023-03-20T02:31:21.843Z,3.10
2023-03-20T02:34:26.177Z,3.08
2023-03-20T02:37:18.144Z,3.05
2023-03-20T02:40:05.929Z,3.01
2023-03-20T02:42:45.783Z,3.00
2023-03-20T02:45:16.911Z,3.01
2023-03-20T02:50:19.334Z,3.02
2023-03-20T02:53:06.839Z,2.96
2023-03-20T02:55:45.241Z,2.94
2023-03-20T02:58:24.472Z,2.94
2023-03-20T03:01:01.778Z,2.93
2023-03-20T03:03:34.579Z,2.92
2023-03-20T03:06:11.231Z,2.91
2023-03-20T03:08:43.492Z,2.91
2023-03-20T03:11:10.646Z,2.90
2023-03-20T03:13:44.018Z,2.92
2023-03-20T03:16:16.606Z,2.94
2023-03-20T03:18:46.853Z,2.97
2023-03-20T03:21:18.829Z,2.99
2023-03-20T03:23:48.820Z,3.00
2023-03-20T03:26:22.968Z,3.00
2023-03-20T03:28:56.985Z,3.00
2023-03-20T03:31:25.500Z,3.00
2023-03-20T03:33:55.693Z,2.99
2023-03-20T03:36:26.279Z,2.97
2023-03-20T03:39:13.305Z,2.94
2023-03-20T03:41:46.364Z,2.93
2023-03-20T03:44:35.360Z,2.95
2023-03-20T03:47:21.398Z,2.95
2023-03-20T03:49:58.710Z,2.97
2023-03-20T03:52:28.470Z,2.97
2023-03-20T03:55:08.768Z,2.97
2023-03-20T03:57:45.894Z,2.90
2023-03-20T04:00:19.900Z,2.86
2023-03-20T04:02:53.521Z,2.84
2023-03-20T04:05:22.126Z,2.84
2023-03-20T04:07:55.042Z,2.85
2023-03-20T04:10:22.261Z,2.87
2023-03-20T04:12:49.153Z,2.90
2023-03-20T04:15:17.114Z,2.86
2023-03-20T04:17:44.562Z,2.80
2023-03-20T04:20:13.506Z,2.78
2023-03-20T04:22:40.783Z,2.78
2023-03-20T04:25:20.215Z,2.79
2023-03-20T04:27:47.648Z,2.78
2023-03-20T04:30:25.088Z,2.77
2023-03-20T04:33:21.926Z,2.75
2023-03-20T04:36:12.659Z,2.76
2023-03-20T04:38:40.715Z,2.79
2023-03-20T04:41:08.961Z,2.81
2023-03-20T04:43:35.983Z,2.80
2023-03-20T04:46:02.969Z,2.80
2023-03-20T04:48:29.887Z,2.79
2023-03-20T04:50:57.624Z,2.79
2023-03-20T04:53:30.444Z,2.81
2023-03-20T04:55:57.269Z,2.84
2023-03-20T04:58:25.934Z,2.85
2023-03-20T05:00:52.877Z,2.83
2023-03-20T05:03:22.544Z,2.83
2023-03-20T05:05:51.094Z,2.87
2023-03-20T05:08:18.518Z,2.88
2023-03-20T05:10:45.645Z,2.88
2023-03-20T05:13:45.105Z,2.90
2023-03-20T05:16:41.602Z,2.97
2023-03-20T05:19:31.117Z,3.02
2023-03-20T05:22:07.235Z,3.07
2023-03-20T05:24:40.298Z,3.13
2023-03-20T05:27:36.444Z,3.18
2023-03-20T05:30:21.898Z,3.23
2023-03-20T05:33:08.525Z,3.25
2023-03-20T05:35:46.605Z,3.30
2023-03-20T05:38:39.980Z,3.41
2023-03-20T05:41:29.742Z,3.55
2023-03-20T05:44:19.349Z,3.71
2023-03-20T05:47:06.799Z,3.86
2023-03-20T05:49:57.847Z,4.06
2023-03-20T05:52:34.823Z,4.33
2023-03-20T05:55:12.224Z,4.75
2023-03-20T05:57:48.747Z,5.34
2023-03-20T06:00:48.113Z,6.11
2023-03-20T06:03:41.432Z,6.90
2023-03-20T06:06:12.156Z,7.61
2023-03-20T06:08:39.165Z,8.17
2023-03-20T06:11:06.932Z,8.57
2023-03-20T06:13:35.772Z,8.91
2023-03-20T06:16:02.659Z,9.33
2023-03-20T06:18:29.680Z,9.81
2023-03-20T06:20:57.826Z,10.29
2023-03-20T06:23:26.233Z,10.76
2023-03-20T06:25:53.477Z,11.29
2023-03-20T06:28:20.740Z,11.43
2023-03-20T06:30:51.952Z,11.67
2023-03-20T06:33:19.148Z,12.26
2023-03-20T06:35:59.582Z,13.02
2023-03-20T06:38:27.755Z,13.62
2023-03-20T06:40:54.800Z,14.04
2023-03-20T06:43:22.743Z,14.61
2023-03-20T06:45:51.848Z,15.16
2023-03-20T06:48:22.405Z,15.64
2023-03-20T06:50:50.883Z,16.13
2023-03-20T06:53:20.150Z,16.56
2023-03-20T06:55:55.032Z,16.95
2023-03-20T06:58:21.846Z,17.39
2023-03-20T07:00:50.416Z,17.91
2023-03-20T07:03:17.568Z,18.54
2023-03-20T07:05:46.330Z,19.13
2023-03-20T07:08:13.319Z,19.57
2023-03-20T07:10:40.209Z,20.06
2023-03-20T07:13:07.152Z,20.51
2023-03-20T07:15:35.276Z,21.01
2023-03-20T07:18:02.877Z,21.52
2023-03-20T07:20:29.955Z,21.89
2023-03-20T07:22:56.899Z,22.12
2023-03-20T07:25:41.306Z,22.37
2023-03-20T07:28:09.433Z,22.58
2023-03-20T07:30:37.637Z,22.42
2023-03-20T07:33:05.196Z,22.40
2023-03-20T07:35:33.140Z,22.58
2023-03-20T07:38:00.633Z,22.71
2023-03-20T07:40:28.359Z,22.66
2023-03-20T07:42:59.087Z,22.65
2023-03-20T07:45:48.706Z,22.79
2023-03-20T07:48:19.394Z,23.04
2023-03-20T07:50:46.365Z,23.45
2023-03-20T07:53:13.510Z,23.94
2023-03-20T07:55:40.875Z,24.41
2023-03-20T07:58:10.179Z,24.86
2023-03-20T08:00:37.109Z,24.95
2023-03-20T08:03:04.609Z,25.07
2023-03-20T08:05:31.684Z,25.31
2023-03-20T08:07:58.706Z,25.78
2023-03-20T08:10:25.913Z,26.18
2023-03-20T08:12:52.800Z,26.52
2023-03-20T08:15:19.706Z,26.93
2023-03-20T08:17:46.932Z,27.39
2023-03-20T08:20:16.472Z,27.63
2023-03-20T08:22:44.356Z,27.93
2023-03-20T08:25:14.170Z,28.24
2023-03-20T08:27:41.217Z,28.44
2023-03-20T08:30:09.810Z,28.52
2023-03-20T08:32:36.998Z,28.57
2023-03-20T08:35:04.169Z,28.66
2023-03-20T08:37:31.219Z,28.78
2023-03-20T08:39:58.052Z,29.23
2023-03-20T08:42:24.954Z,29.58
2023-03-20T08:44:52.175Z,29.70
2023-03-20T08:47:19.766Z,29.73
2023-03-20T08:49:46.603Z,29.68
2023-03-20T08:52:14.958Z,29.41
2023-03-20T08:54:41.879Z,29.41
2023-03-20T08:57:08.879Z,29.24
2023-03-20T08:59:35.769Z,29.11
2023-03-20T09:02:02.706Z,29.19
2023-03-20T09:04:29.890Z,29.23
2023-03-20T09:06:57.306Z,28.56
2023-03-20T09:09:29.699Z,27.60
2023-03-20T09:12:01.685Z,26.96
2023-03-20T09:14:29.530Z,26.17
2023-03-20T09:16:56.484Z,25.74
2023-03-20T09:19:23.487Z,25.89
2023-03-20T09:21:50.370Z,25.95
2023-03-20T09:24:17.378Z,26.05
2023-03-20T09:26:44.421Z,26.11
2023-03-20T09:29:11.449Z,26.58
2023-03-20T09:31:38.568Z,27.06
2023-03-20T09:34:05.646Z,27.02
2023-03-20T09:36:33.815Z,26.87
2023-03-20T09:39:01.160Z,26.51
2023-03-20T09:41:28.588Z,25.73
2023-03-20T09:44:28.913Z,24.99
2023-03-20T09:47:23.831Z,24.53
2023-03-20T09:50:14.893Z,24.22
2023-03-20T09:52:57.594Z,23.96
2023-03-20T09:55:33.865Z,23.69
2023-03-20T09:58:24.689Z,23.49
2023-03-20T10:00:52.103Z,23.34
2023-03-20T10:03:28.408Z,23.34
2023-03-20T10:06:03.744Z,23.46
2023-03-20T10:08:36.685Z,23.64
2023-03-20T10:11:16.375Z,23.67
2023-03-20T10:14:02.212Z,23.78
2023-03-20T10:16:35.295Z,23.95
2023-03-20T10:19:11.894Z,24.07
2023-03-20T10:21:47.385Z,24.38
2023-03-20T10:24:28.890Z,24.89
2023-03-20T10:27:01.607Z,25.10
2023-03-20T10:29:59.729Z,25.22
2023-03-20T10:32:33.152Z,25.29
2023-03-20T10:35:09.038Z,25.37
2023-03-20T10:38:12.081Z,25.48
2023-03-20T10:40:41.970Z,26.40
2023-03-20T10:43:27.340Z,27.31
2023-03-20T10:46:17.571Z,28.02
2023-03-20T10:48:52.439Z,29.06
2023-03-20T10:51:23.561Z,29.52
2023-03-20T10:54:01.321Z,29.27
2023-03-20T10:56:39.604Z,29.51
2023-03-20T10:59:27.749Z,29.88
2023-03-20T11:01:54.913Z,30.34
2023-03-20T11:04:21.981Z,29.89
2023-03-20T11:07:07.304Z,28.92
2023-03-20T11:09:34.296Z,27.94
2023-03-20T11:12:03.877Z,27.64
2023-03-20T11:14:39.127Z,26.94
2023-03-20T11:17:07.127Z,26.57
2023-03-20T11:19:40.575Z,26.81
2023-03-20T11:22:26.557Z,27.28
2023-03-20T11:25:01.763Z,27.78
2023-03-20T11:27:34.759Z,28.37
2023-03-20T11:30:08.565Z,28.79
2023-03-20T11:32:47.757Z,28.59
2023-03-20T11:35:24.151Z,28.47
2023-03-20T11:37:54.191Z,28.38
2023-03-20T11:40:34.506Z,27.93
2023-03-20T11:43:01.730Z,27.63
2023-03-20T11:45:44.919Z,26.83
2023-03-20T11:48:19.476Z,25.42
2023-03-20T11:50:52.934Z,24.49
2023-03-20T11:53:28.817Z,24.35
2023-03-20T11:56:21.025Z,24.65
2023-03-20T11:59:03.669Z,24.77
2023-03-20T12:01:58.219Z,24.69
2023-03-20T12:04:37.844Z,25.04
2023-03-20T12:07:17.691Z,25.31
2023-03-20T12:09:53.790Z,25.07
2023-03-20T12:12:45.901Z,24.97
2023-03-20T12:15:17.735Z,25.26
2023-03-20T12:17:56.936Z,25.24
2023-03-20T12:20:55.584Z,25.14
2023-03-20T12:23:44.572Z,24.80
2023-03-20T12:26:15.526Z,24.94
2023-03-20T12:28:45.643Z,24.85
2023-03-20T12:31:27.044Z,24.67
2023-03-20T12:34:17.508Z,24.76
2023-03-20T12:36:47.535Z,24.11
2023-03-20T12:39:18.856Z,23.50
2023-03-20T12:42:07.527Z,23.28
2023-03-20T12:45:01.238Z,23.07
2023-03-20T12:48:00.268Z,23.13
2023-03-20T12:50:40.095Z,23.13
2023-03-20T12:53:09.803Z,22.94
2023-03-20T12:56:06.249Z,22.59
2023-03-20T12:58:53.652Z,22.03
2023-03-20T13:01:26.636Z,21.50
2023-03-20T13:04:05.813Z,21.39
2023-03-20T13:06:52.109Z,21.47
2023-03-20T13:09:23.278Z,21.34
2023-03-20T13:12:05.204Z,20.91
2023-03-20T13:14:49.085Z,20.51
2023-03-20T13:17:29.671Z,20.35
2023-03-20T13:20:17.950Z,20.19
2023-03-20T13:22:54.065Z,19.75
2023-03-20T13:25:49.159Z,19.35
2023-03-20T13:28:23.478Z,18.96
2023-03-20T13:30:53.234Z,18.67
2023-03-20T13:33:36.430Z,18.41
2023-03-20T13:36:25.723Z,18.11
2023-03-20T13:39:01.210Z,17.89
2023-03-20T13:41:29.133Z,17.73
2023-03-20T13:44:02.089Z,17.55
2023-03-20T13:46:44.900Z,17.42
2023-03-20T13:49:59.054Z,17.21
2023-03-20T13:52:31.466Z,16.94
2023-03-20T13:55:36.311Z,16.76
2023-03-20T13:58:09.359Z,16.47
2023-03-20T14:00:36.571Z,16.24
2023-03-20T14:03:26.338Z,16.13
2023-03-20T14:05:53.422Z,16.00
2023-03-20T14:08:38.571Z,15.90
2023-03-20T14:11:13.563Z,15.84
2023-03-20T14:14:07.751Z,15.78
2023-03-20T14:16:34.681Z,15.69
2023-03-20T14:19:21.845Z,15.62
2023-03-20T14:21:52.365Z,15.50
2023-03-20T14:24:21.115Z,15.43
2023-03-20T14:27:00.220Z,15.30
2023-03-20T14:29:30.428Z,15.14
2023-03-20T14:32:24.294Z,15.03
2023-03-20T14:35:14.929Z,14.90
2023-03-20T14:38:21.623Z,14.80
2023-03-20T14:41:27.673Z,14.72
2023-03-20T14:44:03.816Z,14.58
2023-03-20T14:46:39.691Z,14.48
2023-03-20T14:49:48.859Z,14.42
2023-03-20T14:52:53.695Z,14.32
2023-03-20T14:55:20.731Z,14.23
2023-03-20T14:57:56.425Z,14.20
2023-03-20T15:00:27.592Z,14.14
2023-03-20T15:03:07.352Z,14.09
2023-03-20T15:05:37.245Z,14.03
2023-03-20T15:08:11.604Z,14.00
2023-03-20T15:10:47.655Z,14.01
2023-03-20T15:13:16.988Z,14.00
2023-03-20T15:15:58.049Z,14.00
2023-03-20T15:18:27.673Z,13.95
2023-03-20T15:20:58.030Z,13.89
2023-03-20T15:23:27.175Z,13.81
2023-03-20T15:25:54.064Z,13.75
2023-03-20T15:28:27.783Z,13.68
2023-03-20T15:30:59.687Z,13.59
2023-03-20T15:33:28.670Z,13.49
2023-03-20T15:35:56.791Z,13.42
2023-03-20T15:38:30.721Z,13.36
2023-03-20T15:40:58.185Z,13.31
2023-03-20T15:43:26.940Z,13.29
2023-03-20T15:46:16.930Z,13.25
2023-03-20T15:48:49.189Z,13.22
2023-03-20T15:51:17.516Z,13.18
2023-03-20T15:53:47.882Z,13.15
2023-03-20T15:56:19.576Z,13.14
2023-03-20T15:58:52.584Z,13.17
2023-03-20T16:01:23.425Z,13.19
2023-03-20T16:03:52.311Z,13.21
2023-03-20T16:06:25.734Z,13.26
2023-03-20T16:09:08.546Z,13.27
2023-03-20T16:11:41.569Z,13.26
2023-03-20T16:14:15.009Z,13.25
2023-03-20T16:16:42.642Z,13.21
2023-03-20T16:19:13.176Z,13.17
2023-03-20T16:21:44.992Z,13.12
2023-03-20T16:24:20.662Z,13.07
2023-03-20T16:26:51.519Z,13.04
2023-03-20T16:29:22.894Z,13.02
2023-03-20T16:31:59.773Z,13.06
2023-03-20T16:34:35.893Z,13.09
2023-03-20T16:37:08.561Z,13.06
2023-03-20T16:39:35.632Z,12.99
2023-03-20T16:42:19.263Z,12.91
2023-03-20T16:44:46.537Z,12.86
2023-03-20T16:47:20.955Z,12.83
2023-03-20T16:50:02.562Z,12.78
2023-03-20T16:52:32.613Z,12.72
2023-03-20T16:55:01.010Z,12.63
2023-03-20T16:57:33.478Z,12.50
2023-03-20T17:00:06.557Z,12.40
2023-03-20T17:02:41.149Z,12.36
2023-03-20T17:05:13.783Z,12.31
2023-03-20T17:07:42.776Z,12.25
2023-03-20T17:10:21.782Z,12.18
2023-03-20T17:12:51.541Z,12.10
2023-03-20T17:15:24.725Z,12.06
2023-03-20T17:17:52.218Z,12.02
2023-03-20T17:20:21.203Z,11.95
2023-03-20T17:22:48.329Z,11.84
2023-03-20T17:25:16.024Z,11.72
2023-03-20T17:27:43.325Z,11.62
2023-03-20T17:30:25.525Z,11.56
2023-03-20T17:32:53.481Z,11.46
2023-03-20T17:35:20.591Z,11.39
2023-03-20T17:37:49.139Z,11.35
2023-03-20T17:40:22.362Z,11.33
2023-03-20T17:42:49.359Z,11.26
2023-03-20T17:45:20.451Z,11.18
2023-03-20T17:47:48.040Z,11.12
2023-03-20T17:50:25.785Z,11.07
2023-03-20T17:52:53.822Z,11.01
2023-03-20T17:55:21.382Z,10.91
2023-03-20T17:57:49.035Z,10.86
2023-03-20T18:00:20.709Z,10.80
2023-03-20T18:02:48.329Z,10.74
2023-03-20T18:05:15.670Z,10.71
2023-03-20T18:07:42.706Z,10.71
2023-03-20T18:10:25.440Z,10.70
2023-03-20T18:12:52.386Z,10.70
2023-03-20T18:15:19.437Z,10.68
2023-03-20T18:17:46.508Z,10.63
2023-03-20T18:20:34.899Z,10.57
2023-03-20T18:23:02.044Z,10.49
2023-03-20T18:25:29.471Z,10.42
2023-03-20T18:27:58.699Z,10.34
2023-03-20T18:30:29.731Z,10.30
2023-03-20T18:32:56.676Z,10.24
2023-03-20T18:35:23.722Z,10.17
2023-03-20T18:37:50.815Z,10.07
2023-03-20T18:40:29.939Z,10.00
2023-03-20T18:43:00.160Z,9.91
2023-03-20T18:45:29.157Z,9.82
2023-03-20T18:47:57.468Z,9.76
2023-03-20T18:50:33.933Z,9.71
2023-03-20T18:53:03.890Z,9.66
2023-03-20T18:55:31.986Z,9.63
2023-03-20T18:57:59.137Z,9.60
2023-03-20T19:00:38.292Z,9.56
2023-03-20T19:03:06.019Z,9.52
2023-03-20T19:05:33.398Z,9.47
2023-03-20T19:08:01.366Z,9.43
2023-03-20T19:10:40.245Z,9.43
2023-03-20T19:13:07.851Z,9.43
2023-03-20T19:15:37.512Z,9.43
2023-03-20T19:18:15.646Z,9.43
2023-03-20T19:20:45.723Z,9.42
2023-03-20T19:23:15.300Z,9.41
2023-03-20T19:25:44.805Z,9.41
2023-03-20T19:28:42.084Z,9.42
2023-03-20T19:31:10.143Z,9.39
2023-03-20T19:33:39.264Z,9.38
2023-03-20T19:36:08.067Z,9.35
2023-03-20T19:38:38.161Z,9.33
2023-03-20T19:41:05.740Z,9.33
2023-03-20T19:43:33.377Z,9.34
2023-03-20T19:46:00.600Z,9.36
2023-03-20T19:48:46.841Z,9.36
2023-03-20T19:51:22.553Z,9.37
2023-03-20T19:53:50.971Z,9.34
2023-03-20T19:56:22.390Z,9.34
2023-03-20T19:58:50.442Z,9.33
2023-03-20T20:01:24.071Z,9.33
2023-03-20T20:03:53.940Z,9.31
2023-03-20T20:06:22.423Z,9.29
2023-03-20T20:08:50.887Z,9.27
2023-03-20T20:11:20.719Z,9.24
2023-03-20T20:16:40.342Z,9.13
2023-03-20T20:19:07.883Z,9.09
2023-03-20T20:24:22.228Z,8.96
2023-03-20T20:26:55.572Z,8.90
2023-03-20T20:29:27.465Z,8.83
2023-03-20T20:31:54.792Z,8.77
2023-03-20T20:37:56.539Z,8.72
2023-03-20T20:39:57.904Z,8.70
2023-03-20T20:42:26.608Z,8.69
2023-03-20T20:44:53.717Z,8.71
2023-03-20T20:47:21.475Z,8.73
2023-03-20T20:49:49.161Z,8.76
2023-03-20T20:52:16.322Z,8.79
2023-03-20T20:54:43.546Z,8.81
2023-03-20T20:57:12.097Z,8.83
2023-03-20T20:59:40.511Z,8.83
2023-03-20T21:02:12.010Z,8.82
2023-03-20T21:04:41.339Z,8.87
2023-03-20T21:07:12.156Z,8.91
2023-03-20T21:09:40.989Z,8.94
2023-03-20T21:12:14.744Z,8.96
2023-03-20T21:14:50.882Z,8.96
2023-03-20T21:17:17.933Z,9.00
2023-03-20T21:19:45.152Z,9.04
2023-03-20T21:22:16.024Z,9.09
2023-03-20T21:24:43.638Z,9.19
2023-03-20T21:27:14.550Z,9.33
2023-03-20T21:29:43.385Z,9.42
2023-03-20T21:32:17.958Z,9.50
2023-03-20T21:34:45.121Z,9.56
2023-03-20T21:40:07.388Z,9.66
2023-03-20T21:42:35.181Z,9.78
2023-03-20T21:51:15.212Z,9.84
2023-03-20T21:56:56.610Z,9.74
2023-03-20T22:02:07.724Z,9.57
2023-03-20T22:05:22.156Z,9.51
2023-03-20T22:16:31.293Z,9.49
2023-03-20T22:22:00.108Z,9.47
2023-03-20T22:30:12.611Z,9.29
2023-03-20T22:33:10.923Z,9.23
2023-03-20T22:36:02.915Z,9.20
2023-03-20T22:38:55.716Z,9.13
2023-03-20T22:41:50.570Z,9.05
2023-03-20T22:44:34.014Z,8.98
2023-03-20T22:47:24.888Z,8.91
2023-03-20T22:50:11.185Z,8.84
2023-03-20T22:52:48.821Z,8.81
2023-03-20T22:55:17.772Z,8.77
2023-03-20T22:57:59.864Z,8.75
2023-03-20T23:00:32.605Z,8.75
2023-03-20T23:03:13.837Z,8.76
2023-03-20T23:05:44.819Z,8.77
2023-03-20T23:08:12.357Z,8.78
2023-03-20T23:10:44.868Z,8.78
2023-03-20T23:13:12.867Z,8.78
2023-03-20T23:15:39.952Z,8.78
2023-03-20T23:18:07.086Z,8.77
2023-03-20T23:20:34.212Z,8.76
2023-03-20T23:23:01.240Z,8.77
2023-03-20T23:25:38.835Z,8.79
2023-03-20T23:28:10.545Z,8.81
2023-03-20T23:30:46.557Z,8.88
2023-03-20T23:33:17.785Z,8.90
2023-03-20T23:35:44.724Z,8.92
2023-03-20T23:38:11.732Z,8.93
2023-03-20T23:40:38.942Z,8.97
2023-03-20T23:43:06.120Z,9.02
2023-03-20T23:45:32.988Z,9.01
2023-03-20T23:48:00.014Z,8.98
2023-03-20T23:50:34.284Z,8.91
2023-03-20T23:53:17.465Z,8.85
2023-03-20T23:55:47.819Z,8.77
2023-03-20T23:58:15.769Z,8.68
